sensor_id;sensor_type;location;lat;lon;timestamp;P1;durP1;ratioP1;P2;durP2;ratioP2
61015;SDS011;46902;52.920;6.536;2023-04-25T00:01:10;24.30;;;4.68;;
61015;SDS011;46902;52.920;6.536;2023-04-25T00:03:39;26.98;;;4.80;;
61015;SDS011;46902;52.920;6.536;2023-04-25T00:06:05;24.63;;;4.53;;
61015;SDS011;46902;52.920;6.536;2023-04-25T00:08:31;21.33;;;4.53;;
61015;SDS011;46902;52.920;6.536;2023-04-25T00:10:57;24.63;;;4.63;;
61015;SDS011;46902;52.920;6.536;2023-04-25T00:13:23;27.88;;;5.13;;
61015;SDS011;46902;52.920;6.536;2023-04-25T00:15:50;26.00;;;5.30;;
61015;SDS011;46902;52.920;6.536;2023-04-25T00:18:16;23.25;;;4.28;;
61015;SDS011;46902;52.920;6.536;2023-04-25T00:20:42;24.35;;;4.63;;
61015;SDS011;46902;52.920;6.536;2023-04-25T00:23:11;30.33;;;5.32;;
61015;SDS011;46902;52.920;6.536;2023-04-25T00:25:42;23.65;;;4.53;;
61015;SDS011;46902;52.920;6.536;2023-04-25T00:28:11;20.52;;;4.60;;
61015;SDS011;46902;52.920;6.536;2023-04-25T00:30:38;23.50;;;4.85;;
61015;SDS011;46902;52.920;6.536;2023-04-25T00:33:04;17.60;;;4.20;;
61015;SDS011;46902;52.920;6.536;2023-04-25T00:35:29;22.17;;;4.47;;
61015;SDS011;46902;52.920;6.536;2023-04-25T00:37:55;20.92;;;4.57;;
61015;SDS011;46902;52.920;6.536;2023-04-25T00:40:21;19.95;;;4.40;;
61015;SDS011;46902;52.920;6.536;2023-04-25T00:42:47;17.75;;;3.88;;
61015;SDS011;46902;52.920;6.536;2023-04-25T00:45:13;18.55;;;3.88;;
61015;SDS011;46902;52.920;6.536;2023-04-25T00:47:40;15.10;;;3.70;;
61015;SDS011;46902;52.920;6.536;2023-04-25T00:50:07;14.60;;;3.85;;
61015;SDS011;46902;52.920;6.536;2023-04-25T00:52:33;18.50;;;3.30;;
61015;SDS011;46902;52.920;6.536;2023-04-25T00:54:59;20.90;;;4.18;;
61015;SDS011;46902;52.920;6.536;2023-04-25T00:57:25;18.48;;;4.07;;
61015;SDS011;46902;52.920;6.536;2023-04-25T00:59:51;15.13;;;3.63;;
61015;SDS011;46902;52.920;6.536;2023-04-25T01:02:19;17.50;;;3.85;;
61015;SDS011;46902;52.920;6.536;2023-04-25T01:04:45;19.50;;;3.53;;
61015;SDS011;46902;52.920;6.536;2023-04-25T01:07:12;22.73;;;4.45;;
61015;SDS011;46902;52.920;6.536;2023-04-25T01:09:38;21.35;;;4.38;;
61015;SDS011;46902;52.920;6.536;2023-04-25T01:12:04;17.48;;;4.68;;
61015;SDS011;46902;52.920;6.536;2023-04-25T01:14:30;18.98;;;3.60;;
61015;SDS011;46902;52.920;6.536;2023-04-25T01:16:56;20.75;;;4.25;;
61015;SDS011;46902;52.920;6.536;2023-04-25T01:19:22;19.00;;;4.30;;
61015;SDS011;46902;52.920;6.536;2023-04-25T01:21:48;23.55;;;4.07;;
61015;SDS011;46902;52.920;6.536;2023-04-25T01:24:14;18.42;;;3.95;;
61015;SDS011;46902;52.920;6.536;2023-04-25T01:26:41;28.42;;;4.53;;
61015;SDS011;46902;52.920;6.536;2023-04-25T01:29:14;22.48;;;4.20;;
61015;SDS011;46902;52.920;6.536;2023-04-25T01:31:44;20.50;;;4.03;;
61015;SDS011;46902;52.920;6.536;2023-04-25T01:34:11;19.83;;;3.85;;
61015;SDS011;46902;52.920;6.536;2023-04-25T01:36:37;16.77;;;3.88;;
61015;SDS011;46902;52.920;6.536;2023-04-25T01:39:03;15.98;;;3.45;;
61015;SDS011;46902;52.920;6.536;2023-04-25T01:41:28;20.70;;;3.53;;
61015;SDS011;46902;52.920;6.536;2023-04-25T01:43:54;20.13;;;4.60;;
61015;SDS011;46902;52.920;6.536;2023-04-25T01:46:20;16.63;;;4.15;;
61015;SDS011;46902;52.920;6.536;2023-04-25T01:48:46;23.17;;;3.88;;
61015;SDS011;46902;52.920;6.536;2023-04-25T01:51:12;17.75;;;3.78;;
61015;SDS011;46902;52.920;6.536;2023-04-25T01:53:38;19.95;;;4.38;;
61015;SDS011;46902;52.920;6.536;2023-04-25T01:56:04;20.08;;;4.40;;
61015;SDS011;46902;52.920;6.536;2023-04-25T01:58:30;19.13;;;4.78;;
61015;SDS011;46902;52.920;6.536;2023-04-25T02:00:56;22.88;;;4.00;;
61015;SDS011;46902;52.920;6.536;2023-04-25T02:03:21;21.35;;;3.85;;
61015;SDS011;46902;52.920;6.536;2023-04-25T02:05:47;20.52;;;3.90;;
61015;SDS011;46902;52.920;6.536;2023-04-25T02:08:13;19.65;;;4.05;;
61015;SDS011;46902;52.920;6.536;2023-04-25T02:10:38;23.60;;;3.70;;
61015;SDS011;46902;52.920;6.536;2023-04-25T02:13:04;20.23;;;3.42;;
61015;SDS011;46902;52.920;6.536;2023-04-25T02:15:30;28.10;;;4.03;;
61015;SDS011;46902;52.920;6.536;2023-04-25T02:17:56;24.90;;;4.10;;
61015;SDS011;46902;52.920;6.536;2023-04-25T02:20:23;21.05;;;4.18;;
61015;SDS011;46902;52.920;6.536;2023-04-25T02:22:49;16.75;;;3.53;;
61015;SDS011;46902;52.920;6.536;2023-04-25T02:25:16;16.92;;;4.10;;
61015;SDS011;46902;52.920;6.536;2023-04-25T02:27:42;19.98;;;3.20;;
61015;SDS011;46902;52.920;6.536;2023-04-25T02:30:08;16.90;;;3.75;;
61015;SDS011;46902;52.920;6.536;2023-04-25T02:32:34;21.85;;;4.00;;
61015;SDS011;46902;52.920;6.536;2023-04-25T02:35:00;19.52;;;3.33;;
61015;SDS011;46902;52.920;6.536;2023-04-25T02:37:32;19.02;;;4.00;;
61015;SDS011;46902;52.920;6.536;2023-04-25T02:39:58;18.38;;;3.35;;
61015;SDS011;46902;52.920;6.536;2023-04-25T02:42:24;14.07;;;3.85;;
61015;SDS011;46902;52.920;6.536;2023-04-25T02:44:50;20.27;;;3.90;;
61015;SDS011;46902;52.920;6.536;2023-04-25T02:47:16;21.80;;;3.70;;
61015;SDS011;46902;52.920;6.536;2023-04-25T02:49:41;18.95;;;3.67;;
61015;SDS011;46902;52.920;6.536;2023-04-25T02:52:07;17.58;;;3.03;;
61015;SDS011;46902;52.920;6.536;2023-04-25T02:54:33;19.27;;;3.20;;
61015;SDS011;46902;52.920;6.536;2023-04-25T02:56:59;17.20;;;3.30;;
61015;SDS011;46902;52.920;6.536;2023-04-25T02:59:26;20.52;;;3.13;;
61015;SDS011;46902;52.920;6.536;2023-04-25T03:01:51;18.67;;;3.67;;
61015;SDS011;46902;52.920;6.536;2023-04-25T03:04:17;19.85;;;2.90;;
61015;SDS011;46902;52.920;6.536;2023-04-25T03:06:44;18.10;;;3.05;;
61015;SDS011;46902;52.920;6.536;2023-04-25T03:09:09;18.13;;;2.85;;
61015;SDS011;46902;52.920;6.536;2023-04-25T03:11:36;16.85;;;2.72;;
61015;SDS011;46902;52.920;6.536;2023-04-25T03:14:03;15.65;;;2.58;;
61015;SDS011;46902;52.920;6.536;2023-04-25T03:16:29;15.90;;;2.55;;
61015;SDS011;46902;52.920;6.536;2023-04-25T03:18:55;18.83;;;3.13;;
61015;SDS011;46902;52.920;6.536;2023-04-25T03:21:21;13.75;;;3.30;;
61015;SDS011;46902;52.920;6.536;2023-04-25T03:23:47;18.35;;;3.10;;
61015;SDS011;46902;52.920;6.536;2023-04-25T03:26:12;11.18;;;2.50;;
61015;SDS011;46902;52.920;6.536;2023-04-25T03:28:38;16.13;;;3.15;;
61015;SDS011;46902;52.920;6.536;2023-04-25T03:31:05;12.30;;;2.55;;
61015;SDS011;46902;52.920;6.536;2023-04-25T03:33:31;14.15;;;2.25;;
61015;SDS011;46902;52.920;6.536;2023-04-25T03:35:56;9.15;;;2.50;;
61015;SDS011;46902;52.920;6.536;2023-04-25T03:38:22;9.30;;;1.83;;
61015;SDS011;46902;52.920;6.536;2023-04-25T03:40:48;9.82;;;2.10;;
61015;SDS011;46902;52.920;6.536;2023-04-25T03:43:15;9.27;;;1.77;;
61015;SDS011;46902;52.920;6.536;2023-04-25T03:45:41;7.00;;;1.70;;
61015;SDS011;46902;52.920;6.536;2023-04-25T03:48:07;8.23;;;1.80;;
61015;SDS011;46902;52.920;6.536;2023-04-25T03:50:32;9.65;;;1.65;;
61015;SDS011;46902;52.920;6.536;2023-04-25T03:52:58;8.00;;;1.35;;
61015;SDS011;46902;52.920;6.536;2023-04-25T03:55:23;6.25;;;1.35;;
61015;SDS011;46902;52.920;6.536;2023-04-25T03:57:49;6.20;;;1.73;;
61015;SDS011;46902;52.920;6.536;2023-04-25T04:00:15;8.15;;;1.75;;
61015;SDS011;46902;52.920;6.536;2023-04-25T04:02:40;10.05;;;1.80;;
61015;SDS011;46902;52.920;6.536;2023-04-25T04:05:06;5.38;;;1.48;;
61015;SDS011;46902;52.920;6.536;2023-04-25T04:07:32;7.43;;;1.38;;
61015;SDS011;46902;52.920;6.536;2023-04-25T04:09:58;10.80;;;2.05;;
61015;SDS011;46902;52.920;6.536;2023-04-25T04:12:24;8.48;;;1.67;;
61015;SDS011;46902;52.920;6.536;2023-04-25T04:14:50;10.07;;;2.00;;
61015;SDS011;46902;52.920;6.536;2023-04-25T04:17:15;6.43;;;2.20;;
61015;SDS011;46902;52.920;6.536;2023-04-25T04:19:41;12.05;;;1.70;;
61015;SDS011;46902;52.920;6.536;2023-04-25T04:22:06;6.70;;;1.83;;
61015;SDS011;46902;52.920;6.536;2023-04-25T04:24:32;11.05;;;1.60;;
61015;SDS011;46902;52.920;6.536;2023-04-25T04:26:58;7.65;;;1.40;;
61015;SDS011;46902;52.920;6.536;2023-04-25T04:29:24;8.90;;;1.63;;
61015;SDS011;46902;52.920;6.536;2023-04-25T04:31:50;9.38;;;2.30;;
61015;SDS011;46902;52.920;6.536;2023-04-25T04:34:17;8.85;;;1.65;;
61015;SDS011;46902;52.920;6.536;2023-04-25T04:36:46;8.48;;;1.58;;
61015;SDS011;46902;52.920;6.536;2023-04-25T04:39:12;10.40;;;1.75;;
61015;SDS011;46902;52.920;6.536;2023-04-25T04:41:38;8.32;;;1.92;;
61015;SDS011;46902;52.920;6.536;2023-04-25T04:44:04;6.88;;;1.52;;
61015;SDS011;46902;52.920;6.536;2023-04-25T04:46:31;8.85;;;1.80;;
61015;SDS011;46902;52.920;6.536;2023-04-25T04:49:02;10.13;;;1.88;;
61015;SDS011;46902;52.920;6.536;2023-04-25T04:51:29;8.13;;;1.48;;
61015;SDS011;46902;52.920;6.536;2023-04-25T04:53:56;7.65;;;1.40;;
61015;SDS011;46902;52.920;6.536;2023-04-25T04:56:23;9.38;;;1.92;;
61015;SDS011;46902;52.920;6.536;2023-04-25T04:58:50;6.22;;;1.38;;
61015;SDS011;46902;52.920;6.536;2023-04-25T05:01:17;9.38;;;1.88;;
61015;SDS011;46902;52.920;6.536;2023-04-25T05:03:43;12.55;;;1.98;;
61015;SDS011;46902;52.920;6.536;2023-04-25T05:06:08;13.13;;;2.05;;
61015;SDS011;46902;52.920;6.536;2023-04-25T05:08:34;10.27;;;2.00;;
61015;SDS011;46902;52.920;6.536;2023-04-25T05:11:00;9.07;;;2.20;;
61015;SDS011;46902;52.920;6.536;2023-04-25T05:13:26;8.82;;;2.10;;
61015;SDS011;46902;52.920;6.536;2023-04-25T05:15:51;9.80;;;2.15;;
61015;SDS011;46902;52.920;6.536;2023-04-25T05:18:17;8.93;;;2.30;;
61015;SDS011;46902;52.920;6.536;2023-04-25T05:20:42;9.20;;;2.83;;
61015;SDS011;46902;52.920;6.536;2023-04-25T05:23:08;11.98;;;1.80;;
61015;SDS011;46902;52.920;6.536;2023-04-25T05:25:34;10.68;;;2.58;;
61015;SDS011;46902;52.920;6.536;2023-04-25T05:27:59;12.98;;;2.47;;
61015;SDS011;46902;52.920;6.536;2023-04-25T05:30:25;9.43;;;2.08;;
61015;SDS011;46902;52.920;6.536;2023-04-25T05:32:50;10.20;;;1.92;;
61015;SDS011;46902;52.920;6.536;2023-04-25T05:35:16;10.32;;;2.63;;
61015;SDS011;46902;52.920;6.536;2023-04-25T05:37:42;14.55;;;2.72;;
61015;SDS011;46902;52.920;6.536;2023-04-25T05:40:07;12.85;;;3.03;;
61015;SDS011;46902;52.920;6.536;2023-04-25T05:42:33;11.60;;;2.45;;
61015;SDS011;46902;52.920;6.536;2023-04-25T05:44:59;9.70;;;1.48;;
61015;SDS011;46902;52.920;6.536;2023-04-25T05:47:25;12.73;;;2.15;;
61015;SDS011;46902;52.920;6.536;2023-04-25T05:49:51;11.70;;;2.30;;
61015;SDS011;46902;52.920;6.536;2023-04-25T05:52:17;11.27;;;2.45;;
61015;SDS011;46902;52.920;6.536;2023-04-25T05:54:43;11.23;;;1.98;;
61015;SDS011;46902;52.920;6.536;2023-04-25T05:57:17;14.75;;;2.15;;
61015;SDS011;46902;52.920;6.536;2023-04-25T05:59:52;14.38;;;2.42;;
61015;SDS011;46902;52.920;6.536;2023-04-25T06:02:18;12.43;;;2.20;;
61015;SDS011;46902;52.920;6.536;2023-04-25T06:04:46;12.70;;;2.00;;
61015;SDS011;46902;52.920;6.536;2023-04-25T06:07:12;10.98;;;2.10;;
61015;SDS011;46902;52.920;6.536;2023-04-25T06:09:38;13.10;;;2.25;;
61015;SDS011;46902;52.920;6.536;2023-04-25T06:12:05;13.50;;;2.60;;
61015;SDS011;46902;52.920;6.536;2023-04-25T06:14:31;14.27;;;2.40;;
61015;SDS011;46902;52.920;6.536;2023-04-25T06:16:56;17.20;;;2.42;;
61015;SDS011;46902;52.920;6.536;2023-04-25T06:19:22;11.55;;;1.90;;
61015;SDS011;46902;52.920;6.536;2023-04-25T06:21:48;12.00;;;2.55;;
61015;SDS011;46902;52.920;6.536;2023-04-25T06:24:13;16.98;;;2.70;;
61015;SDS011;46902;52.920;6.536;2023-04-25T06:26:39;13.85;;;2.50;;
61015;SDS011;46902;52.920;6.536;2023-04-25T06:29:04;14.52;;;2.38;;
61015;SDS011;46902;52.920;6.536;2023-04-25T06:31:30;11.88;;;2.60;;
61015;SDS011;46902;52.920;6.536;2023-04-25T06:33:58;11.77;;;2.72;;
61015;SDS011;46902;52.920;6.536;2023-04-25T06:36:23;14.13;;;2.30;;
61015;SDS011;46902;52.920;6.536;2023-04-25T06:38:51;14.05;;;2.25;;
61015;SDS011;46902;52.920;6.536;2023-04-25T06:41:17;15.90;;;2.22;;
61015;SDS011;46902;52.920;6.536;2023-04-25T06:43:43;11.88;;;2.80;;
61015;SDS011;46902;52.920;6.536;2023-04-25T06:46:09;13.98;;;1.95;;
61015;SDS011;46902;52.920;6.536;2023-04-25T06:48:35;7.00;;;1.80;;
61015;SDS011;46902;52.920;6.536;2023-04-25T06:51:01;9.77;;;2.00;;
61015;SDS011;46902;52.920;6.536;2023-04-25T06:53:26;12.88;;;2.17;;
61015;SDS011;46902;52.920;6.536;2023-04-25T06:55:52;14.32;;;2.30;;
61015;SDS011;46902;52.920;6.536;2023-04-25T06:58:18;12.35;;;1.98;;
61015;SDS011;46902;52.920;6.536;2023-04-25T07:00:43;15.13;;;1.83;;
61015;SDS011;46902;52.920;6.536;2023-04-25T07:03:09;15.35;;;2.60;;
61015;SDS011;46902;52.920;6.536;2023-04-25T07:05:35;10.98;;;1.73;;
61015;SDS011;46902;52.920;6.536;2023-04-25T07:08:00;9.23;;;1.63;;
61015;SDS011;46902;52.920;6.536;2023-04-25T07:10:26;8.15;;;1.80;;
61015;SDS011;46902;52.920;6.536;2023-04-25T07:12:52;12.90;;;1.80;;
61015;SDS011;46902;52.920;6.536;2023-04-25T07:15:18;8.15;;;1.67;;
61015;SDS011;46902;52.920;6.536;2023-04-25T07:17:44;13.40;;;2.08;;
61015;SDS011;46902;52.920;6.536;2023-04-25T07:20:09;11.88;;;1.90;;
61015;SDS011;46902;52.920;6.536;2023-04-25T07:22:36;11.63;;;2.10;;
61015;SDS011;46902;52.920;6.536;2023-04-25T07:25:01;9.32;;;1.60;;
61015;SDS011;46902;52.920;6.536;2023-04-25T07:27:29;9.35;;;1.52;;
61015;SDS011;46902;52.920;6.536;2023-04-25T07:29:54;8.98;;;1.63;;
61015;SDS011;46902;52.920;6.536;2023-04-25T07:32:20;8.05;;;1.80;;
61015;SDS011;46902;52.920;6.536;2023-04-25T07:34:46;10.68;;;1.67;;
61015;SDS011;46902;52.920;6.536;2023-04-25T07:37:11;9.52;;;1.55;;
61015;SDS011;46902;52.920;6.536;2023-04-25T07:39:37;14.70;;;1.90;;
61015;SDS011;46902;52.920;6.536;2023-04-25T07:42:03;9.50;;;1.50;;
61015;SDS011;46902;52.920;6.536;2023-04-25T07:44:29;9.57;;;1.58;;
61015;SDS011;46902;52.920;6.536;2023-04-25T07:46:55;8.73;;;1.70;;
61015;SDS011;46902;52.920;6.536;2023-04-25T07:49:21;11.05;;;2.17;;
61015;SDS011;46902;52.920;6.536;2023-04-25T07:51:47;7.28;;;2.03;;
61015;SDS011;46902;52.920;6.536;2023-04-25T07:54:13;13.13;;;1.75;;
61015;SDS011;46902;52.920;6.536;2023-04-25T07:56:40;6.72;;;1.52;;
61015;SDS011;46902;52.920;6.536;2023-04-25T07:59:06;6.72;;;1.60;;
61015;SDS011;46902;52.920;6.536;2023-04-25T08:01:31;10.18;;;1.90;;
61015;SDS011;46902;52.920;6.536;2023-04-25T08:03:58;11.52;;;1.80;;
61015;SDS011;46902;52.920;6.536;2023-04-25T08:06:24;6.07;;;1.60;;
61015;SDS011;46902;52.920;6.536;2023-04-25T08:08:50;7.75;;;1.50;;
61015;SDS011;46902;52.920;6.536;2023-04-25T08:11:16;9.95;;;1.60;;
61015;SDS011;46902;52.920;6.536;2023-04-25T08:13:41;7.57;;;1.45;;
61015;SDS011;46902;52.920;6.536;2023-04-25T08:16:07;10.88;;;1.98;;
61015;SDS011;46902;52.920;6.536;2023-04-25T08:18:33;11.38;;;1.88;;
61015;SDS011;46902;52.920;6.536;2023-04-25T08:20:58;8.23;;;1.80;;
61015;SDS011;46902;52.920;6.536;2023-04-25T08:23:24;8.80;;;1.83;;
61015;SDS011;46902;52.920;6.536;2023-04-25T08:25:50;7.88;;;1.92;;
61015;SDS011;46902;52.920;6.536;2023-04-25T08:28:16;10.48;;;1.58;;
61015;SDS011;46902;52.920;6.536;2023-04-25T08:30:41;7.10;;;1.35;;
61015;SDS011;46902;52.920;6.536;2023-04-25T08:33:07;9.93;;;1.48;;
61015;SDS011;46902;52.920;6.536;2023-04-25T08:35:33;6.57;;;1.40;;
61015;SDS011;46902;52.920;6.536;2023-04-25T08:37:58;7.25;;;1.20;;
61015;SDS011;46902;52.920;6.536;2023-04-25T08:40:26;7.00;;;1.73;;
61015;SDS011;46902;52.920;6.536;2023-04-25T08:42:55;10.10;;;1.50;;
61015;SDS011;46902;52.920;6.536;2023-04-25T08:45:22;6.45;;;1.05;;
61015;SDS011;46902;52.920;6.536;2023-04-25T08:47:48;7.32;;;1.38;;
61015;SDS011;46902;52.920;6.536;2023-04-25T08:50:17;7.65;;;1.40;;
61015;SDS011;46902;52.920;6.536;2023-04-25T08:52:44;8.52;;;1.45;;
61015;SDS011;46902;52.920;6.536;2023-04-25T08:55:13;9.65;;;1.88;;
61015;SDS011;46902;52.920;6.536;2023-04-25T08:57:41;13.00;;;2.58;;
61015;SDS011;46902;52.920;6.536;2023-04-25T09:00:11;8.20;;;1.60;;
61015;SDS011;46902;52.920;6.536;2023-04-25T09:02:38;6.32;;;1.70;;
61015;SDS011;46902;52.920;6.536;2023-04-25T09:05:05;7.03;;;1.50;;
61015;SDS011;46902;52.920;6.536;2023-04-25T09:07:34;7.13;;;1.65;;
61015;SDS011;46902;52.920;6.536;2023-04-25T09:10:00;5.80;;;0.90;;
61015;SDS011;46902;52.920;6.536;2023-04-25T09:12:28;7.72;;;1.20;;
61015;SDS011;46902;52.920;6.536;2023-04-25T09:15:09;9.38;;;1.15;;
61015;SDS011;46902;52.920;6.536;2023-04-25T09:17:35;6.38;;;1.25;;
61015;SDS011;46902;52.920;6.536;2023-04-25T09:20:12;5.18;;;1.35;;
61015;SDS011;46902;52.920;6.536;2023-04-25T09:25:27;6.15;;;1.15;;
61015;SDS011;46902;52.920;6.536;2023-04-25T09:31:22;3.55;;;0.73;;
61015;SDS011;46902;52.920;6.536;2023-04-25T09:37:22;4.47;;;1.00;;
61015;SDS011;46902;52.920;6.536;2023-04-25T09:50:35;9.93;;;1.50;;
61015;SDS011;46902;52.920;6.536;2023-04-25T09:53:19;7.70;;;1.20;;
61015;SDS011;46902;52.920;6.536;2023-04-25T09:55:45;9.40;;;1.60;;
61015;SDS011;46902;52.920;6.536;2023-04-25T10:10:06;6.88;;;1.45;;
61015;SDS011;46902;52.920;6.536;2023-04-25T10:28:25;7.47;;;1.35;;
61015;SDS011;46902;52.920;6.536;2023-04-25T10:30:58;12.13;;;1.95;;
61015;SDS011;46902;52.920;6.536;2023-04-25T10:33:42;9.55;;;1.90;;
61015;SDS011;46902;52.920;6.536;2023-04-25T10:39:48;8.18;;;1.50;;
61015;SDS011;46902;52.920;6.536;2023-04-25T10:57:51;9.30;;;2.10;;
61015;SDS011;46902;52.920;6.536;2023-04-25T11:03:58;6.07;;;1.33;;
61015;SDS011;46902;52.920;6.536;2023-04-25T11:09:49;4.72;;;0.85;;
61015;SDS011;46902;52.920;6.536;2023-04-25T11:12:52;4.80;;;0.90;;
61015;SDS011;46902;52.920;6.536;2023-04-25T11:16:13;6.60;;;0.93;;
61015;SDS011;46902;52.920;6.536;2023-04-25T11:19:16;9.43;;;1.35;;
61015;SDS011;46902;52.920;6.536;2023-04-25T11:21:48;5.27;;;1.03;;
61015;SDS011;46902;52.920;6.536;2023-04-25T11:24:15;6.47;;;1.00;;
61015;SDS011;46902;52.920;6.536;2023-04-25T11:26:42;8.05;;;0.88;;
61015;SDS011;46902;52.920;6.536;2023-04-25T11:29:08;4.85;;;0.93;;
61015;SDS011;46902;52.920;6.536;2023-04-25T11:31:34;5.13;;;1.30;;
61015;SDS011;46902;52.920;6.536;2023-04-25T11:34:00;5.05;;;0.90;;
61015;SDS011;46902;52.920;6.536;2023-04-25T11:36:26;7.30;;;1.27;;
61015;SDS011;46902;52.920;6.536;2023-04-25T11:38:52;7.00;;;1.10;;
61015;SDS011;46902;52.920;6.536;2023-04-25T11:41:21;7.57;;;1.15;;
61015;SDS011;46902;52.920;6.536;2023-04-25T11:43:47;6.85;;;1.75;;
61015;SDS011;46902;52.920;6.536;2023-04-25T11:46:15;7.72;;;1.40;;
61015;SDS011;46902;52.920;6.536;2023-04-25T11:48:41;9.52;;;1.98;;
61015;SDS011;46902;52.920;6.536;2023-04-25T11:51:08;8.00;;;2.50;;
61015;SDS011;46902;52.920;6.536;2023-04-25T11:53:33;10.18;;;1.88;;
61015;SDS011;46902;52.920;6.536;2023-04-25T11:56:00;6.63;;;1.60;;
61015;SDS011;46902;52.920;6.536;2023-04-25T11:58:26;7.20;;;1.00;;
61015;SDS011;46902;52.920;6.536;2023-04-25T12:00:52;10.52;;;1.80;;
61015;SDS011;46902;52.920;6.536;2023-04-25T12:03:18;5.40;;;1.10;;
61015;SDS011;46902;52.920;6.536;2023-04-25T12:05:44;4.22;;;1.10;;
61015;SDS011;46902;52.920;6.536;2023-04-25T12:08:11;4.95;;;1.20;;
61015;SDS011;46902;52.920;6.536;2023-04-25T12:10:38;6.97;;;1.65;;
61015;SDS011;46902;52.920;6.536;2023-04-25T12:13:18;7.55;;;1.30;;
61015;SDS011;46902;52.920;6.536;2023-04-25T12:15:48;12.23;;;1.73;;
61015;SDS011;46902;52.920;6.536;2023-04-25T12:18:15;10.05;;;1.40;;
61015;SDS011;46902;52.920;6.536;2023-04-25T12:20:44;8.38;;;1.33;;
61015;SDS011;46902;52.920;6.536;2023-04-25T12:23:09;6.70;;;1.50;;
61015;SDS011;46902;52.920;6.536;2023-04-25T12:25:39;8.30;;;1.70;;
61015;SDS011;46902;52.920;6.536;2023-04-25T12:28:12;7.05;;;1.55;;
61015;SDS011;46902;52.920;6.536;2023-04-25T12:30:56;9.85;;;1.42;;
61015;SDS011;46902;52.920;6.536;2023-04-25T12:33:30;10.95;;;1.25;;
61015;SDS011;46902;52.920;6.536;2023-04-25T12:36:01;9.57;;;1.50;;
61015;SDS011;46902;52.920;6.536;2023-04-25T12:38:35;4.97;;;1.13;;
61015;SDS011;46902;52.920;6.536;2023-04-25T12:41:05;5.93;;;1.42;;
61015;SDS011;46902;52.920;6.536;2023-04-25T12:43:31;5.72;;;1.13;;
61015;SDS011;46902;52.920;6.536;2023-04-25T12:45:57;6.50;;;1.45;;
61015;SDS011;46902;52.920;6.536;2023-04-25T12:48:22;8.05;;;1.30;;
61015;SDS011;46902;52.920;6.536;2023-04-25T12:50:49;9.95;;;1.40;;
61015;SDS011;46902;52.920;6.536;2023-04-25T12:53:17;9.52;;;1.63;;
61015;SDS011;46902;52.920;6.536;2023-04-25T12:55:43;8.68;;;1.65;;
61015;SDS011;46902;52.920;6.536;2023-04-25T12:58:13;10.70;;;2.33;;
61015;SDS011;46902;52.920;6.536;2023-04-25T13:00:39;7.72;;;1.50;;
61015;SDS011;46902;52.920;6.536;2023-04-25T13:03:04;6.05;;;1.20;;
61015;SDS011;46902;52.920;6.536;2023-04-25T13:05:30;9.35;;;1.55;;
61015;SDS011;46902;52.920;6.536;2023-04-25T13:07:56;8.38;;;1.42;;
61015;SDS011;46902;52.920;6.536;2023-04-25T13:10:22;5.50;;;1.13;;
61015;SDS011;46902;52.920;6.536;2023-04-25T13:12:47;6.30;;;1.10;;
61015;SDS011;46902;52.920;6.536;2023-04-25T13:15:13;8.05;;;1.58;;
61015;SDS011;46902;52.920;6.536;2023-04-25T13:17:40;7.85;;;1.70;;
61015;SDS011;46902;52.920;6.536;2023-04-25T13:20:07;8.60;;;1.25;;
61015;SDS011;46902;52.920;6.536;2023-04-25T13:22:40;8.63;;;1.40;;
61015;SDS011;46902;52.920;6.536;2023-04-25T13:25:07;6.70;;;1.35;;
61015;SDS011;46902;52.920;6.536;2023-04-25T13:27:33;10.38;;;1.50;;
61015;SDS011;46902;52.920;6.536;2023-04-25T13:30:01;6.07;;;1.52;;
61015;SDS011;46902;52.920;6.536;2023-04-25T13:32:35;7.15;;;1.08;;
61015;SDS011;46902;52.920;6.536;2023-04-25T13:35:02;7.75;;;1.45;;
61015;SDS011;46902;52.920;6.536;2023-04-25T13:37:29;6.32;;;1.30;;
61015;SDS011;46902;52.920;6.536;2023-04-25T13:39:57;6.05;;;1.20;;
61015;SDS011;46902;52.920;6.536;2023-04-25T13:42:28;5.85;;;1.23;;
61015;SDS011;46902;52.920;6.536;2023-04-25T13:44:54;8.70;;;1.95;;
61015;SDS011;46902;52.920;6.536;2023-04-25T13:47:20;7.25;;;1.30;;
61015;SDS011;46902;52.920;6.536;2023-04-25T13:49:45;6.88;;;1.27;;
61015;SDS011;46902;52.920;6.536;2023-04-25T13:52:11;9.00;;;1.83;;
61015;SDS011;46902;52.920;6.536;2023-04-25T13:54:36;5.35;;;1.13;;
61015;SDS011;46902;52.920;6.536;2023-04-25T13:57:02;5.72;;;1.55;;
61015;SDS011;46902;52.920;6.536;2023-04-25T13:59:27;4.85;;;1.25;;
61015;SDS011;46902;52.920;6.536;2023-04-25T14:01:53;6.35;;;0.98;;
61015;SDS011;46902;52.920;6.536;2023-04-25T14:04:19;7.78;;;1.00;;
61015;SDS011;46902;52.920;6.536;2023-04-25T14:06:44;6.22;;;1.00;;
61015;SDS011;46902;52.920;6.536;2023-04-25T14:09:10;4.82;;;1.65;;
61015;SDS011;46902;52.920;6.536;2023-04-25T14:11:37;7.43;;;1.70;;
61015;SDS011;46902;52.920;6.536;2023-04-25T14:14:02;6.15;;;1.35;;
61015;SDS011;46902;52.920;6.536;2023-04-25T14:16:28;8.88;;;1.65;;
61015;SDS011;46902;52.920;6.536;2023-04-25T14:18:55;7.35;;;1.25;;
61015;SDS011;46902;52.920;6.536;2023-04-25T14:21:21;5.22;;;1.30;;
61015;SDS011;46902;52.920;6.536;2023-04-25T14:23:47;7.88;;;1.50;;
61015;SDS011;46902;52.920;6.536;2023-04-25T14:26:12;6.35;;;1.60;;
61015;SDS011;46902;52.920;6.536;2023-04-25T14:28:38;4.40;;;1.35;;
61015;SDS011;46902;52.920;6.536;2023-04-25T14:31:04;7.10;;;1.40;;
61015;SDS011;46902;52.920;6.536;2023-04-25T14:33:29;7.28;;;1.55;;
61015;SDS011;46902;52.920;6.536;2023-04-25T14:35:55;7.55;;;2.17;;
61015;SDS011;46902;52.920;6.536;2023-04-25T14:38:21;7.55;;;1.40;;
61015;SDS011;46902;52.920;6.536;2023-04-25T14:40:48;9.02;;;1.80;;
61015;SDS011;46902;52.920;6.536;2023-04-25T14:43:15;7.70;;;1.50;;
61015;SDS011;46902;52.920;6.536;2023-04-25T14:45:40;8.43;;;1.42;;
61015;SDS011;46902;52.920;6.536;2023-04-25T14:48:06;8.02;;;1.60;;
61015;SDS011;46902;52.920;6.536;2023-04-25T14:50:32;9.35;;;1.20;;
61015;SDS011;46902;52.920;6.536;2023-04-25T14:52:57;12.00;;;2.17;;
61015;SDS011;46902;52.920;6.536;2023-04-25T14:55:25;7.78;;;1.63;;
61015;SDS011;46902;52.920;6.536;2023-04-25T14:57:52;12.90;;;1.80;;
61015;SDS011;46902;52.920;6.536;2023-04-25T15:00:19;12.07;;;2.00;;
61015;SDS011;46902;52.920;6.536;2023-04-25T15:02:45;5.63;;;1.10;;
61015;SDS011;46902;52.920;6.536;2023-04-25T15:05:12;9.80;;;2.05;;
61015;SDS011;46902;52.920;6.536;2023-04-25T15:07:38;9.65;;;1.80;;
61015;SDS011;46902;52.920;6.536;2023-04-25T15:10:05;9.10;;;1.67;;
61015;SDS011;46902;52.920;6.536;2023-04-25T15:12:36;9.68;;;1.88;;
61015;SDS011;46902;52.920;6.536;2023-04-25T15:15:03;6.82;;;1.35;;
61015;SDS011;46902;52.920;6.536;2023-04-25T15:17:28;5.45;;;1.23;;
61015;SDS011;46902;52.920;6.536;2023-04-25T15:19:56;7.25;;;1.33;;
61015;SDS011;46902;52.920;6.536;2023-04-25T15:22:22;5.18;;;1.05;;
61015;SDS011;46902;52.920;6.536;2023-04-25T15:24:47;5.28;;;1.27;;
61015;SDS011;46902;52.920;6.536;2023-04-25T15:27:13;6.20;;;1.17;;
61015;SDS011;46902;52.920;6.536;2023-04-25T15:29:39;4.85;;;1.08;;
61015;SDS011;46902;52.920;6.536;2023-04-25T15:32:05;8.57;;;1.40;;
61015;SDS011;46902;52.920;6.536;2023-04-25T15:34:31;7.38;;;1.23;;
61015;SDS011;46902;52.920;6.536;2023-04-25T15:36:56;7.20;;;1.08;;
61015;SDS011;46902;52.920;6.536;2023-04-25T15:39:22;5.13;;;1.20;;
61015;SDS011;46902;52.920;6.536;2023-04-25T15:41:48;9.10;;;1.50;;
61015;SDS011;46902;52.920;6.536;2023-04-25T15:44:14;4.20;;;1.02;;
61015;SDS011;46902;52.920;6.536;2023-04-25T15:46:39;8.20;;;1.55;;
61015;SDS011;46902;52.920;6.536;2023-04-25T15:49:05;6.28;;;1.38;;
61015;SDS011;46902;52.920;6.536;2023-04-25T15:51:30;8.73;;;1.80;;
61015;SDS011;46902;52.920;6.536;2023-04-25T15:53:57;9.73;;;1.42;;